sensor_id;sensor_type;location;lat;lon;timestamp;P1;durP1;ratioP1;P2;durP2;ratioP2
76292;SDS011;67256;51.154;4.164;2023-12-28T00:00:49;6.18;;;3.60;;
76292;SDS011;67256;51.154;4.164;2023-12-28T00:03:15;5.00;;;3.15;;
76292;SDS011;67256;51.154;4.164;2023-12-28T00:05:41;5.45;;;3.03;;
76292;SDS011;67256;51.154;4.164;2023-12-28T00:08:06;5.53;;;3.00;;
76292;SDS011;67256;51.154;4.164;2023-12-28T00:10:32;4.28;;;2.90;;
76292;SDS011;67256;51.154;4.164;2023-12-28T00:12:58;4.55;;;2.42;;
76292;SDS011;67256;51.154;4.164;2023-12-28T00:15:24;6.05;;;3.00;;
76292;SDS011;67256;51.154;4.164;2023-12-28T00:17:49;4.15;;;2.80;;
76292;SDS011;67256;51.154;4.164;2023-12-28T00:20:15;4.95;;;3.42;;
76292;SDS011;67256;51.154;4.164;2023-12-28T00:22:41;5.50;;;2.90;;
76292;SDS011;67256;51.154;4.164;2023-12-28T00:25:07;12.43;;;3.25;;
76292;SDS011;67256;51.154;4.164;2023-12-28T00:27:33;5.32;;;3.00;;
76292;SDS011;67256;51.154;4.164;2023-12-28T00:30:00;5.88;;;2.70;;
76292;SDS011;67256;51.154;4.164;2023-12-28T00:32:26;5.78;;;3.13;;
76292;SDS011;67256;51.154;4.164;2023-12-28T00:34:52;5.68;;;3.20;;
76292;SDS011;67256;51.154;4.164;2023-12-28T00:37:18;9.23;;;3.42;;
76292;SDS011;67256;51.154;4.164;2023-12-28T00:39:43;6.97;;;4.05;;
76292;SDS011;67256;51.154;4.164;2023-12-28T00:42:11;6.20;;;2.83;;
76292;SDS011;67256;51.154;4.164;2023-12-28T00:44:38;5.57;;;2.83;;
76292;SDS011;67256;51.154;4.164;2023-12-28T00:47:03;4.88;;;3.05;;
76292;SDS011;67256;51.154;4.164;2023-12-28T00:49:31;4.80;;;2.63;;
76292;SDS011;67256;51.154;4.164;2023-12-28T00:51:57;5.72;;;2.63;;
76292;SDS011;67256;51.154;4.164;2023-12-28T00:54:23;3.88;;;2.25;;
76292;SDS011;67256;51.154;4.164;2023-12-28T00:56:48;4.57;;;2.60;;
76292;SDS011;67256;51.154;4.164;2023-12-28T00:59:14;6.45;;;2.90;;
76292;SDS011;67256;51.154;4.164;2023-12-28T01:01:40;5.03;;;2.55;;
76292;SDS011;67256;51.154;4.164;2023-12-28T01:04:06;5.85;;;2.67;;
76292;SDS011;67256;51.154;4.164;2023-12-28T01:06:32;3.72;;;2.47;;
76292;SDS011;67256;51.154;4.164;2023-12-28T01:08:57;8.77;;;2.63;;
76292;SDS011;67256;51.154;4.164;2023-12-28T01:11:23;8.02;;;2.97;;
76292;SDS011;67256;51.154;4.164;2023-12-28T01:13:50;6.30;;;2.80;;
76292;SDS011;67256;51.154;4.164;2023-12-28T01:16:16;9.68;;;2.67;;
76292;SDS011;67256;51.154;4.164;2023-12-28T01:18:42;5.32;;;2.90;;
76292;SDS011;67256;51.154;4.164;2023-12-28T01:21:08;5.97;;;3.22;;
76292;SDS011;67256;51.154;4.164;2023-12-28T01:23:34;7.97;;;3.05;;
76292;SDS011;67256;51.154;4.164;2023-12-28T01:25:59;9.10;;;2.88;;
76292;SDS011;67256;51.154;4.164;2023-12-28T01:28:27;5.20;;;2.63;;
76292;SDS011;67256;51.154;4.164;2023-12-28T01:30:53;5.38;;;3.28;;
76292;SDS011;67256;51.154;4.164;2023-12-28T01:33:19;5.68;;;3.30;;
76292;SDS011;67256;51.154;4.164;2023-12-28T01:35:44;8.57;;;3.60;;
76292;SDS011;67256;51.154;4.164;2023-12-28T01:38:10;4.30;;;2.88;;
76292;SDS011;67256;51.154;4.164;2023-12-28T01:40:36;4.65;;;3.05;;
76292;SDS011;67256;51.154;4.164;2023-12-28T01:43:02;4.93;;;2.50;;
76292;SDS011;67256;51.154;4.164;2023-12-28T01:45:28;6.75;;;2.58;;
76292;SDS011;67256;51.154;4.164;2023-12-28T01:47:54;6.35;;;2.78;;
76292;SDS011;67256;51.154;4.164;2023-12-28T01:50:22;5.43;;;2.65;;
76292;SDS011;67256;51.154;4.164;2023-12-28T01:52:49;8.05;;;2.90;;
76292;SDS011;67256;51.154;4.164;2023-12-28T01:55:16;6.57;;;3.13;;
76292;SDS011;67256;51.154;4.164;2023-12-28T01:57:42;6.03;;;3.03;;
76292;SDS011;67256;51.154;4.164;2023-12-28T02:00:08;6.05;;;2.85;;
76292;SDS011;67256;51.154;4.164;2023-12-28T02:02:35;7.18;;;3.05;;
76292;SDS011;67256;51.154;4.164;2023-12-28T02:05:01;4.70;;;3.00;;
76292;SDS011;67256;51.154;4.164;2023-12-28T02:07:28;4.38;;;2.55;;
76292;SDS011;67256;51.154;4.164;2023-12-28T02:09:54;5.93;;;2.80;;
76292;SDS011;67256;51.154;4.164;2023-12-28T02:12:20;6.88;;;2.88;;
76292;SDS011;67256;51.154;4.164;2023-12-28T02:14:46;7.03;;;3.15;;
76292;SDS011;67256;51.154;4.164;2023-12-28T02:17:14;8.77;;;3.10;;
76292;SDS011;67256;51.154;4.164;2023-12-28T02:19:52;9.00;;;2.80;;
76292;SDS011;67256;51.154;4.164;2023-12-28T02:22:21;5.53;;;2.90;;
76292;SDS011;67256;51.154;4.164;2023-12-28T02:27:24;7.88;;;2.85;;
76292;SDS011;67256;51.154;4.164;2023-12-28T02:29:50;8.82;;;2.78;;
76292;SDS011;67256;51.154;4.164;2023-12-28T02:32:16;9.57;;;3.15;;
76292;SDS011;67256;51.154;4.164;2023-12-28T02:34:44;8.60;;;2.65;;
76292;SDS011;67256;51.154;4.164;2023-12-28T02:37:15;8.90;;;2.30;;
76292;SDS011;67256;51.154;4.164;2023-12-28T02:39:43;7.97;;;3.10;;
76292;SDS011;67256;51.154;4.164;2023-12-28T02:42:11;5.72;;;2.67;;
76292;SDS011;67256;51.154;4.164;2023-12-28T02:44:37;6.45;;;2.28;;
76292;SDS011;67256;51.154;4.164;2023-12-28T02:47:03;6.82;;;2.95;;
76292;SDS011;67256;51.154;4.164;2023-12-28T02:49:29;9.27;;;2.97;;
76292;SDS011;67256;51.154;4.164;2023-12-28T02:51:54;9.73;;;2.70;;
76292;SDS011;67256;51.154;4.164;2023-12-28T02:54:20;7.32;;;3.47;;
76292;SDS011;67256;51.154;4.164;2023-12-28T02:56:46;9.57;;;2.33;;
76292;SDS011;67256;51.154;4.164;2023-12-28T02:59:12;5.75;;;2.95;;
76292;SDS011;67256;51.154;4.164;2023-12-28T03:01:38;10.45;;;2.63;;
76292;SDS011;67256;51.154;4.164;2023-12-28T03:04:04;9.48;;;2.60;;
76292;SDS011;67256;51.154;4.164;2023-12-28T03:06:30;5.40;;;2.30;;
76292;SDS011;67256;51.154;4.164;2023-12-28T03:08:56;10.32;;;2.58;;
76292;SDS011;67256;51.154;4.164;2023-12-28T03:11:22;6.65;;;2.65;;
76292;SDS011;67256;51.154;4.164;2023-12-28T03:13:47;6.40;;;2.88;;
76292;SDS011;67256;51.154;4.164;2023-12-28T03:16:13;8.50;;;2.80;;
76292;SDS011;67256;51.154;4.164;2023-12-28T03:18:39;8.55;;;2.20;;
76292;SDS011;67256;51.154;4.164;2023-12-28T03:21:05;7.75;;;2.20;;
76292;SDS011;67256;51.154;4.164;2023-12-28T03:23:30;10.27;;;2.45;;
76292;SDS011;67256;51.154;4.164;2023-12-28T03:25:56;5.00;;;2.42;;
76292;SDS011;67256;51.154;4.164;2023-12-28T03:28:22;6.10;;;2.20;;
76292;SDS011;67256;51.154;4.164;2023-12-28T03:30:47;8.50;;;2.72;;
76292;SDS011;67256;51.154;4.164;2023-12-28T03:33:13;5.88;;;2.30;;
76292;SDS011;67256;51.154;4.164;2023-12-28T03:35:39;10.05;;;3.15;;
76292;SDS011;67256;51.154;4.164;2023-12-28T03:38:04;6.82;;;2.67;;
76292;SDS011;67256;51.154;4.164;2023-12-28T03:40:30;7.05;;;2.75;;
76292;SDS011;67256;51.154;4.164;2023-12-28T03:42:56;6.88;;;2.65;;
76292;SDS011;67256;51.154;4.164;2023-12-28T03:45:22;7.65;;;2.45;;
76292;SDS011;67256;51.154;4.164;2023-12-28T03:47:48;8.43;;;2.47;;
76292;SDS011;67256;51.154;4.164;2023-12-28T03:50:13;9.05;;;3.10;;
76292;SDS011;67256;51.154;4.164;2023-12-28T03:52:39;8.52;;;2.63;;
76292;SDS011;67256;51.154;4.164;2023-12-28T03:55:05;6.90;;;3.03;;
76292;SDS011;67256;51.154;4.164;2023-12-28T03:57:31;8.05;;;2.10;;
76292;SDS011;67256;51.154;4.164;2023-12-28T03:59:56;9.15;;;2.85;;
76292;SDS011;67256;51.154;4.164;2023-12-28T04:02:22;10.60;;;2.40;;
76292;SDS011;67256;51.154;4.164;2023-12-28T04:04:49;5.07;;;2.78;;
76292;SDS011;67256;51.154;4.164;2023-12-28T04:07:15;8.00;;;2.97;;
76292;SDS011;67256;51.154;4.164;2023-12-28T04:09:41;6.57;;;2.90;;
76292;SDS011;67256;51.154;4.164;2023-12-28T04:12:07;13.23;;;2.88;;
76292;SDS011;67256;51.154;4.164;2023-12-28T04:14:33;8.18;;;2.53;;
76292;SDS011;67256;51.154;4.164;2023-12-28T04:17:00;10.65;;;3.10;;
76292;SDS011;67256;51.154;4.164;2023-12-28T04:19:26;8.65;;;2.70;;
76292;SDS011;67256;51.154;4.164;2023-12-28T04:21:51;12.63;;;2.97;;
76292;SDS011;67256;51.154;4.164;2023-12-28T04:24:17;6.22;;;2.30;;
76292;SDS011;67256;51.154;4.164;2023-12-28T04:26:43;7.72;;;2.47;;
76292;SDS011;67256;51.154;4.164;2023-12-28T04:29:09;9.38;;;2.90;;
76292;SDS011;67256;51.154;4.164;2023-12-28T04:31:39;4.47;;;2.00;;
76292;SDS011;67256;51.154;4.164;2023-12-28T04:34:07;10.13;;;2.80;;
76292;SDS011;67256;51.154;4.164;2023-12-28T04:36:38;14.20;;;3.25;;
76292;SDS011;67256;51.154;4.164;2023-12-28T04:39:05;5.88;;;2.40;;
76292;SDS011;67256;51.154;4.164;2023-12-28T04:41:31;12.30;;;2.80;;
76292;SDS011;67256;51.154;4.164;2023-12-28T04:43:57;8.55;;;2.53;;
76292;SDS011;67256;51.154;4.164;2023-12-28T04:46:22;7.35;;;3.78;;
76292;SDS011;67256;51.154;4.164;2023-12-28T04:48:48;8.63;;;2.80;;
76292;SDS011;67256;51.154;4.164;2023-12-28T04:51:14;10.05;;;3.13;;
76292;SDS011;67256;51.154;4.164;2023-12-28T04:53:40;10.32;;;2.42;;
76292;SDS011;67256;51.154;4.164;2023-12-28T04:56:05;9.90;;;2.47;;
76292;SDS011;67256;51.154;4.164;2023-12-28T04:58:31;11.95;;;4.40;;
76292;SDS011;67256;51.154;4.164;2023-12-28T05:00:57;10.02;;;2.70;;
76292;SDS011;67256;51.154;4.164;2023-12-28T05:03:23;10.52;;;2.83;;
76292;SDS011;67256;51.154;4.164;2023-12-28T05:05:49;12.77;;;2.90;;
76292;SDS011;67256;51.154;4.164;2023-12-28T05:08:14;11.18;;;2.58;;
76292;SDS011;67256;51.154;4.164;2023-12-28T05:10:40;8.35;;;2.50;;
76292;SDS011;67256;51.154;4.164;2023-12-28T05:13:06;12.55;;;3.78;;
76292;SDS011;67256;51.154;4.164;2023-12-28T05:15:31;7.88;;;2.45;;
76292;SDS011;67256;51.154;4.164;2023-12-28T05:17:57;14.43;;;3.03;;
76292;SDS011;67256;51.154;4.164;2023-12-28T05:20:23;8.75;;;2.47;;
76292;SDS011;67256;51.154;4.164;2023-12-28T05:22:48;14.65;;;3.47;;
76292;SDS011;67256;51.154;4.164;2023-12-28T05:25:15;13.55;;;2.80;;
76292;SDS011;67256;51.154;4.164;2023-12-28T05:27:40;7.90;;;2.78;;
76292;SDS011;67256;51.154;4.164;2023-12-28T05:30:07;13.63;;;3.25;;
76292;SDS011;67256;51.154;4.164;2023-12-28T05:32:34;12.20;;;3.33;;
76292;SDS011;67256;51.154;4.164;2023-12-28T05:35:00;18.33;;;4.70;;
76292;SDS011;67256;51.154;4.164;2023-12-28T05:37:26;8.27;;;2.38;;
76292;SDS011;67256;51.154;4.164;2023-12-28T05:39:52;18.83;;;3.60;;
76292;SDS011;67256;51.154;4.164;2023-12-28T05:42:18;17.27;;;3.10;;
76292;SDS011;67256;51.154;4.164;2023-12-28T05:44:44;12.70;;;2.63;;
76292;SDS011;67256;51.154;4.164;2023-12-28T05:47:09;10.05;;;2.58;;
76292;SDS011;67256;51.154;4.164;2023-12-28T05:49:36;11.10;;;2.92;;
76292;SDS011;67256;51.154;4.164;2023-12-28T05:52:02;10.80;;;2.53;;
76292;SDS011;67256;51.154;4.164;2023-12-28T05:54:28;17.33;;;3.38;;
76292;SDS011;67256;51.154;4.164;2023-12-28T05:56:54;10.38;;;2.78;;
76292;SDS011;67256;51.154;4.164;2023-12-28T05:59:20;11.32;;;3.05;;
76292;SDS011;67256;51.154;4.164;2023-12-28T06:01:47;12.18;;;3.00;;
76292;SDS011;67256;51.154;4.164;2023-12-28T06:04:13;13.57;;;2.78;;
76292;SDS011;67256;51.154;4.164;2023-12-28T06:06:39;11.55;;;4.03;;
76292;SDS011;67256;51.154;4.164;2023-12-28T06:09:04;15.70;;;2.95;;
76292;SDS011;67256;51.154;4.164;2023-12-28T06:11:30;12.60;;;3.78;;
76292;SDS011;67256;51.154;4.164;2023-12-28T06:13:56;15.40;;;3.65;;
76292;SDS011;67256;51.154;4.164;2023-12-28T06:16:22;12.85;;;3.30;;
76292;SDS011;67256;51.154;4.164;2023-12-28T06:18:48;12.45;;;3.15;;
76292;SDS011;67256;51.154;4.164;2023-12-28T06:21:14;10.57;;;2.53;;
76292;SDS011;67256;51.154;4.164;2023-12-28T06:23:40;17.30;;;3.75;;
76292;SDS011;67256;51.154;4.164;2023-12-28T06:26:06;16.88;;;4.15;;
76292;SDS011;67256;51.154;4.164;2023-12-28T06:28:31;15.30;;;3.42;;
76292;SDS011;67256;51.154;4.164;2023-12-28T06:30:58;10.40;;;2.50;;
76292;SDS011;67256;51.154;4.164;2023-12-28T06:33:28;17.17;;;3.20;;
76292;SDS011;67256;51.154;4.164;2023-12-28T06:35:54;14.95;;;3.22;;
76292;SDS011;67256;51.154;4.164;2023-12-28T06:38:20;23.27;;;4.18;;
76292;SDS011;67256;51.154;4.164;2023-12-28T06:40:46;19.60;;;3.33;;
76292;SDS011;67256;51.154;4.164;2023-12-28T06:43:11;23.13;;;3.78;;
76292;SDS011;67256;51.154;4.164;2023-12-28T06:45:37;17.00;;;2.92;;
76292;SDS011;67256;51.154;4.164;2023-12-28T06:48:03;11.95;;;3.10;;
76292;SDS011;67256;51.154;4.164;2023-12-28T06:50:30;25.30;;;3.42;;
76292;SDS011;67256;51.154;4.164;2023-12-28T06:52:55;21.33;;;5.22;;
76292;SDS011;67256;51.154;4.164;2023-12-28T06:55:22;13.95;;;3.00;;
76292;SDS011;67256;51.154;4.164;2023-12-28T06:57:48;17.33;;;2.92;;
76292;SDS011;67256;51.154;4.164;2023-12-28T07:00:13;18.52;;;3.72;;
76292;SDS011;67256;51.154;4.164;2023-12-28T07:02:40;23.45;;;4.30;;
76292;SDS011;67256;51.154;4.164;2023-12-28T07:05:06;18.33;;;4.60;;
76292;SDS011;67256;51.154;4.164;2023-12-28T07:07:33;16.10;;;3.97;;
76292;SDS011;67256;51.154;4.164;2023-12-28T07:09:59;14.95;;;3.42;;
76292;SDS011;67256;51.154;4.164;2023-12-28T07:12:24;15.30;;;3.05;;
76292;SDS011;67256;51.154;4.164;2023-12-28T07:14:50;17.95;;;3.67;;
76292;SDS011;67256;51.154;4.164;2023-12-28T07:17:16;20.27;;;3.33;;
76292;SDS011;67256;51.154;4.164;2023-12-28T07:19:42;16.35;;;3.30;;
76292;SDS011;67256;51.154;4.164;2023-12-28T07:22:09;16.13;;;3.28;;
76292;SDS011;67256;51.154;4.164;2023-12-28T07:24:34;16.27;;;3.60;;
76292;SDS011;67256;51.154;4.164;2023-12-28T07:27:00;17.95;;;3.78;;
76292;SDS011;67256;51.154;4.164;2023-12-28T07:29:26;16.35;;;3.17;;
76292;SDS011;67256;51.154;4.164;2023-12-28T07:31:53;17.48;;;3.13;;
76292;SDS011;67256;51.154;4.164;2023-12-28T07:34:19;23.08;;;3.88;;
76292;SDS011;67256;51.154;4.164;2023-12-28T07:36:45;19.17;;;3.72;;
76292;SDS011;67256;51.154;4.164;2023-12-28T07:39:10;15.25;;;3.28;;
76292;SDS011;67256;51.154;4.164;2023-12-28T07:41:37;18.30;;;3.97;;
76292;SDS011;67256;51.154;4.164;2023-12-28T07:44:03;18.05;;;3.83;;
76292;SDS011;67256;51.154;4.164;2023-12-28T07:46:29;14.77;;;3.55;;
76292;SDS011;67256;51.154;4.164;2023-12-28T07:48:55;15.88;;;3.50;;
76292;SDS011;67256;51.154;4.164;2023-12-28T07:51:21;17.50;;;3.97;;
76292;SDS011;67256;51.154;4.164;2023-12-28T07:53:47;18.77;;;3.40;;
76292;SDS011;67256;51.154;4.164;2023-12-28T07:56:13;17.42;;;3.28;;
76292;SDS011;67256;51.154;4.164;2023-12-28T07:58:38;12.52;;;2.55;;
76292;SDS011;67256;51.154;4.164;2023-12-28T08:01:09;19.63;;;3.50;;
76292;SDS011;67256;51.154;4.164;2023-12-28T08:03:36;19.77;;;3.83;;
76292;SDS011;67256;51.154;4.164;2023-12-28T08:06:01;12.30;;;2.85;;
76292;SDS011;67256;51.154;4.164;2023-12-28T08:08:27;17.60;;;3.03;;
76292;SDS011;67256;51.154;4.164;2023-12-28T08:10:53;19.65;;;3.00;;
76292;SDS011;67256;51.154;4.164;2023-12-28T08:13:19;18.02;;;4.65;;
76292;SDS011;67256;51.154;4.164;2023-12-28T08:15:44;15.30;;;3.40;;
76292;SDS011;67256;51.154;4.164;2023-12-28T08:18:11;13.70;;;3.03;;
76292;SDS011;67256;51.154;4.164;2023-12-28T08:20:37;19.73;;;4.13;;
76292;SDS011;67256;51.154;4.164;2023-12-28T08:23:03;14.18;;;3.85;;
76292;SDS011;67256;51.154;4.164;2023-12-28T08:25:29;17.58;;;3.22;;
76292;SDS011;67256;51.154;4.164;2023-12-28T08:27:55;23.17;;;3.13;;
76292;SDS011;67256;51.154;4.164;2023-12-28T08:30:20;12.80;;;3.28;;
76292;SDS011;67256;51.154;4.164;2023-12-28T08:32:46;14.05;;;3.95;;
76292;SDS011;67256;51.154;4.164;2023-12-28T08:35:12;19.90;;;4.15;;
76292;SDS011;67256;51.154;4.164;2023-12-28T08:37:38;12.82;;;3.83;;
76292;SDS011;67256;51.154;4.164;2023-12-28T08:40:04;20.77;;;3.75;;
76292;SDS011;67256;51.154;4.164;2023-12-28T08:42:30;20.98;;;3.80;;
76292;SDS011;67256;51.154;4.164;2023-12-28T08:44:56;14.43;;;2.92;;
76292;SDS011;67256;51.154;4.164;2023-12-28T08:47:22;14.05;;;3.65;;
76292;SDS011;67256;51.154;4.164;2023-12-28T08:49:48;15.80;;;3.22;;
76292;SDS011;67256;51.154;4.164;2023-12-28T08:52:13;17.13;;;3.75;;
76292;SDS011;67256;51.154;4.164;2023-12-28T08:54:39;15.90;;;3.47;;
76292;SDS011;67256;51.154;4.164;2023-12-28T08:57:06;13.93;;;3.00;;
76292;SDS011;67256;51.154;4.164;2023-12-28T08:59:35;20.15;;;3.80;;
76292;SDS011;67256;51.154;4.164;2023-12-28T09:02:04;17.65;;;3.58;;
76292;SDS011;67256;51.154;4.164;2023-12-28T09:04:31;18.63;;;4.68;;
76292;SDS011;67256;51.154;4.164;2023-12-28T09:06:57;16.05;;;3.50;;
76292;SDS011;67256;51.154;4.164;2023-12-28T09:09:23;18.88;;;3.35;;
76292;SDS011;67256;51.154;4.164;2023-12-28T09:11:49;19.50;;;3.92;;
76292;SDS011;67256;51.154;4.164;2023-12-28T09:14:15;19.75;;;3.05;;
76292;SDS011;67256;51.154;4.164;2023-12-28T09:16:40;12.20;;;3.22;;
76292;SDS011;67256;51.154;4.164;2023-12-28T09:19:07;20.95;;;3.97;;
76292;SDS011;67256;51.154;4.164;2023-12-28T09:21:33;18.70;;;4.70;;
76292;SDS011;67256;51.154;4.164;2023-12-28T09:23:59;15.48;;;3.40;;
76292;SDS011;67256;51.154;4.164;2023-12-28T09:26:25;19.52;;;3.88;;
76292;SDS011;67256;51.154;4.164;2023-12-28T09:28:50;23.73;;;3.58;;
76292;SDS011;67256;51.154;4.164;2023-12-28T09:31:16;22.00;;;3.72;;
76292;SDS011;67256;51.154;4.164;2023-12-28T09:33:42;29.52;;;4.90;;
76292;SDS011;67256;51.154;4.164;2023-12-28T09:36:09;19.15;;;3.08;;
76292;SDS011;67256;51.154;4.164;2023-12-28T09:38:39;15.52;;;3.03;;
76292;SDS011;67256;51.154;4.164;2023-12-28T09:41:12;23.10;;;3.53;;
76292;SDS011;67256;51.154;4.164;2023-12-28T09:43:41;19.42;;;4.07;;
76292;SDS011;67256;51.154;4.164;2023-12-28T09:46:35;23.25;;;3.58;;
76292;SDS011;67256;51.154;4.164;2023-12-28T09:49:02;20.63;;;4.15;;
76292;SDS011;67256;51.154;4.164;2023-12-28T09:51:29;18.33;;;4.00;;
76292;SDS011;67256;51.154;4.164;2023-12-28T09:53:55;21.25;;;3.65;;
76292;SDS011;67256;51.154;4.164;2023-12-28T09:56:22;15.52;;;4.10;;
76292;SDS011;67256;51.154;4.164;2023-12-28T09:58:48;21.92;;;4.03;;
76292;SDS011;67256;51.154;4.164;2023-12-28T10:01:16;21.33;;;4.15;;
76292;SDS011;67256;51.154;4.164;2023-12-28T10:03:42;19.77;;;3.53;;
76292;SDS011;67256;51.154;4.164;2023-12-28T10:06:08;23.42;;;3.75;;
76292;SDS011;67256;51.154;4.164;2023-12-28T10:08:34;16.70;;;4.35;;
76292;SDS011;67256;51.154;4.164;2023-12-28T10:11:01;23.17;;;4.03;;
76292;SDS011;67256;51.154;4.164;2023-12-28T10:13:28;21.20;;;3.80;;
76292;SDS011;67256;51.154;4.164;2023-12-28T10:15:57;17.65;;;3.97;;
76292;SDS011;67256;51.154;4.164;2023-12-28T10:18:23;13.57;;;2.90;;
76292;SDS011;67256;51.154;4.164;2023-12-28T10:20:49;21.65;;;3.45;;
76292;SDS011;67256;51.154;4.164;2023-12-28T10:23:16;18.42;;;3.25;;
76292;SDS011;67256;51.154;4.164;2023-12-28T10:25:48;21.13;;;4.18;;
76292;SDS011;67256;51.154;4.164;2023-12-28T10:28:18;25.30;;;5.35;;
76292;SDS011;67256;51.154;4.164;2023-12-28T10:30:45;18.35;;;4.15;;
76292;SDS011;67256;51.154;4.164;2023-12-28T10:33:11;19.48;;;3.85;;
76292;SDS011;67256;51.154;4.164;2023-12-28T10:35:38;20.70;;;4.32;;
76292;SDS011;67256;51.154;4.164;2023-12-28T10:38:03;22.48;;;4.55;;
76292;SDS011;67256;51.154;4.164;2023-12-28T10:40:32;28.73;;;5.23;;
76292;SDS011;67256;51.154;4.164;2023-12-28T10:43:04;17.65;;;3.30;;
76292;SDS011;67256;51.154;4.164;2023-12-28T10:45:32;20.92;;;4.35;;
76292;SDS011;67256;51.154;4.164;2023-12-28T10:48:07;23.33;;;4.43;;
76292;SDS011;67256;51.154;4.164;2023-12-28T10:50:41;17.02;;;3.42;;
76292;SDS011;67256;51.154;4.164;2023-12-28T10:56:22;25.83;;;5.50;;
76292;SDS011;67256;51.154;4.164;2023-12-28T11:01:37;21.05;;;3.72;;
76292;SDS011;67256;51.154;4.164;2023-12-28T11:06:46;21.15;;;6.05;;
76292;SDS011;67256;51.154;4.164;2023-12-28T11:09:13;21.45;;;4.40;;
76292;SDS011;67256;51.154;4.164;2023-12-28T11:11:41;21.42;;;4.63;;
76292;SDS011;67256;51.154;4.164;2023-12-28T11:14:11;23.05;;;4.57;;
76292;SDS011;67256;51.154;4.164;2023-12-28T11:16:38;24.27;;;4.90;;
76292;SDS011;67256;51.154;4.164;2023-12-28T11:19:05;23.48;;;5.22;;
76292;SDS011;67256;51.154;4.164;2023-12-28T11:21:32;18.65;;;4.35;;
76292;SDS011;67256;51.154;4.164;2023-12-28T11:23:58;17.48;;;4.10;;
76292;SDS011;67256;51.154;4.164;2023-12-28T11:26:24;19.80;;;4.07;;
76292;SDS011;67256;51.154;4.164;2023-12-28T11:28:50;14.77;;;3.25;;
76292;SDS011;67256;51.154;4.164;2023-12-28T11:31:31;20.77;;;4.18;;
76292;SDS011;67256;51.154;4.164;2023-12-28T11:33:59;17.33;;;3.65;;
76292;SDS011;67256;51.154;4.164;2023-12-28T11:36:35;18.58;;;4.82;;
76292;SDS011;67256;51.154;4.164;2023-12-28T11:39:09;24.73;;;4.57;;
76292;SDS011;67256;51.154;4.164;2023-12-28T11:41:36;23.30;;;4.15;;
76292;SDS011;67256;51.154;4.164;2023-12-28T11:44:02;19.75;;;4.80;;
76292;SDS011;67256;51.154;4.164;2023-12-28T11:46:30;28.00;;;5.50;;
76292;SDS011;67256;51.154;4.164;2023-12-28T11:49:08;17.92;;;3.10;;
76292;SDS011;67256;51.154;4.164;2023-12-28T11:51:35;16.27;;;3.40;;
76292;SDS011;67256;51.154;4.164;2023-12-28T11:54:03;21.37;;;3.60;;
76292;SDS011;67256;51.154;4.164;2023-12-28T11:56:30;18.40;;;4.10;;
76292;SDS011;67256;51.154;4.164;2023-12-28T11:58:56;25.73;;;4.13;;
76292;SDS011;67256;51.154;4.164;2023-12-28T12:01:23;26.83;;;4.70;;
76292;SDS011;67256;51.154;4.164;2023-12-28T12:03:49;22.10;;;4.68;;
76292;SDS011;67256;51.154;4.164;2023-12-28T12:06:15;20.98;;;4.55;;
76292;SDS011;67256;51.154;4.164;2023-12-28T12:08:44;24.73;;;5.25;;
76292;SDS011;67256;51.154;4.164;2023-12-28T12:11:13;19.98;;;3.40;;
76292;SDS011;67256;51.154;4.164;2023-12-28T12:13:38;21.23;;;3.47;;
76292;SDS011;67256;51.154;4.164;2023-12-28T12:16:05;19.90;;;4.05;;
76292;SDS011;67256;51.154;4.164;2023-12-28T12:18:34;22.55;;;5.95;;
76292;SDS011;67256;51.154;4.164;2023-12-28T12:21:01;19.50;;;4.30;;
76292;SDS011;67256;51.154;4.164;2023-12-28T12:23:27;20.98;;;4.00;;
76292;SDS011;67256;51.154;4.164;2023-12-28T12:25:54;20.98;;;4.18;;
76292;SDS011;67256;51.154;4.164;2023-12-28T12:28:20;14.05;;;3.55;;
76292;SDS011;67256;51.154;4.164;2023-12-28T12:30:53;17.10;;;3.58;;
76292;SDS011;67256;51.154;4.164;2023-12-28T12:33:20;21.33;;;3.55;;
76292;SDS011;67256;51.154;4.164;2023-12-28T12:35:47;19.30;;;4.20;;
76292;SDS011;67256;51.154;4.164;2023-12-28T12:38:13;16.40;;;5.30;;
76292;SDS011;67256;51.154;4.164;2023-12-28T12:40:38;15.45;;;3.85;;
76292;SDS011;67256;51.154;4.164;2023-12-28T12:43:05;26.20;;;3.67;;
76292;SDS011;67256;51.154;4.164;2023-12-28T12:45:34;24.85;;;3.83;;
76292;SDS011;67256;51.154;4.164;2023-12-28T12:48:01;22.23;;;3.72;;
76292;SDS011;67256;51.154;4.164;2023-12-28T12:50:31;18.60;;;3.75;;
76292;SDS011;67256;51.154;4.164;2023-12-28T12:52:59;19.83;;;3.35;;
76292;SDS011;67256;51.154;4.164;2023-12-28T12:55:29;20.90;;;3.88;;
76292;SDS011;67256;51.154;4.164;2023-12-28T12:57:55;18.92;;;3.92;;
76292;SDS011;67256;51.154;4.164;2023-12-28T13:00:22;18.40;;;3.60;;
76292;SDS011;67256;51.154;4.164;2023-12-28T13:02:51;25.80;;;4.78;;
76292;SDS011;67256;51.154;4.164;2023-12-28T13:05:21;18.33;;;3.95;;
76292;SDS011;67256;51.154;4.164;2023-12-28T13:07:48;23.33;;;4.13;;
76292;SDS011;67256;51.154;4.164;2023-12-28T13:10:14;22.00;;;4.28;;
76292;SDS011;67256;51.154;4.164;2023-12-28T13:12:40;21.77;;;4.15;;
76292;SDS011;67256;51.154;4.164;2023-12-28T13:15:06;14.43;;;3.05;;
76292;SDS011;67256;51.154;4.164;2023-12-28T13:17:34;23.27;;;4.82;;
76292;SDS011;67256;51.154;4.164;2023-12-28T13:20:06;14.23;;;2.67;;
76292;SDS011;67256;51.154;4.164;2023-12-28T13:22:32;18.45;;;4.15;;
76292;SDS011;67256;51.154;4.164;2023-12-28T13:24:59;19.45;;;3.70;;
76292;SDS011;67256;51.154;4.164;2023-12-28T13:27:26;19.60;;;3.40;;
76292;SDS011;67256;51.154;4.164;2023-12-28T13:29:53;19.13;;;3.75;;
76292;SDS011;67256;51.154;4.164;2023-12-28T13:32:20;26.17;;;4.93;;
76292;SDS011;67256;51.154;4.164;2023-12-28T13:34:46;18.40;;;3.88;;
76292;SDS011;67256;51.154;4.164;2023-12-28T13:37:12;22.88;;;5.15;;
76292;SDS011;67256;51.154;4.164;2023-12-28T13:39:38;16.13;;;3.40;;
76292;SDS011;67256;51.154;4.164;2023-12-28T13:42:07;18.90;;;3.90;;
76292;SDS011;67256;51.154;4.164;2023-12-28T13:47:00;20.38;;;3.72;;
76292;SDS011;67256;51.154;4.164;2023-12-28T13:49:26;21.23;;;3.60;;
76292;SDS011;67256;51.154;4.164;2023-12-28T13:51:52;15.90;;;3.10;;
76292;SDS011;67256;51.154;4.164;2023-12-28T13:54:18;12.93;;;3.22;;
76292;SDS011;67256;51.154;4.164;2023-12-28T13:56:47;18.70;;;3.38;;
76292;SDS011;67256;51.154;4.164;2023-12-28T13:59:13;17.73;;;3.88;;
76292;SDS011;67256;51.154;4.164;2023-12-28T14:01:39;20.30;;;3.72;;
76292;SDS011;67256;51.154;4.164;2023-12-28T14:04:05;23.67;;;4.22;;
76292;SDS011;67256;51.154;4.164;2023-12-28T14:06:31;18.42;;;3.25;;
76292;SDS011;67256;51.154;4.164;2023-12-28T14:08:57;16.92;;;3.33;;
76292;SDS011;67256;51.154;4.164;2023-12-28T14:11:23;24.35;;;3.50;;
76292;SDS011;67256;51.154;4.164;2023-12-28T14:13:49;18.90;;;3.75;;
76292;SDS011;67256;51.154;4.164;2023-12-28T14:16:15;19.23;;;3.88;;
76292;SDS011;67256;51.154;4.164;2023-12-28T14:18:41;17.63;;;3.30;;
76292;SDS011;67256;51.154;4.164;2023-12-28T14:21:11;22.52;;;4.03;;
76292;SDS011;67256;51.154;4.164;2023-12-28T14:23:40;18.38;;;3.97;;
76292;SDS011;67256;51.154;4.164;2023-12-28T14:26:11;15.30;;;3.95;;
76292;SDS011;67256;51.154;4.164;2023-12-28T14:28:39;15.50;;;3.53;;
76292;SDS011;67256;51.154;4.164;2023-12-28T14:31:11;17.75;;;3.70;;
76292;SDS011;67256;51.154;4.164;2023-12-28T14:33:39;16.42;;;3.35;;
76292;SDS011;67256;51.154;4.164;2023-12-28T14:36:09;16.50;;;3.67;;
76292;SDS011;67256;51.154;4.164;2023-12-28T14:38:47;18.70;;;5.07;;
76292;SDS011;67256;51.154;4.164;2023-12-28T14:41:13;21.17;;;3.60;;
76292;SDS011;67256;51.154;4.164;2023-12-28T14:43:39;22.55;;;3.63;;
76292;SDS011;67256;51.154;4.164;2023-12-28T14:46:05;17.02;;;4.25;;
76292;SDS011;67256;51.154;4.164;2023-12-28T14:48:30;14.75;;;3.10;;